Terminal Aerodrome Forecast
Issued by NWS Kansas City/Pleasant Hill, MO

Home | Current Version | Previous Version | Text Only | Print | Product List | Glossary On
Versions: 1 2 3 4 5 6 7 8 9 10 11 12 13 14
000
FTUS43 KEAX 012300
TAFMCI
TAF
KMCI 012330Z 0200/0224 12009KT P6SM VCTS SCT030CB BKN060
     FM020300 06010KT P6SM VCSH BKN030
     FM020700 04009KT P6SM BKN025=

USA.gov is the U.S. government's official web portal to all federal, state and local government web resources and services.